createdAt,value
2023-04-13T00:03:23.665Z,3.50
2023-04-13T00:08:22.226Z,2.85
2023-04-13T00:13:19.159Z,3.70
2023-04-13T00:18:16.057Z,3.40
2023-04-13T00:23:13.488Z,3.08
2023-04-13T00:28:11.286Z,3.72
2023-04-13T00:33:08.232Z,3.30
2023-04-13T00:38:05.391Z,3.47
2023-04-13T00:43:04.970Z,3.60
2023-04-13T00:48:02.456Z,4.22
2023-04-13T00:53:00.430Z,3.58
2023-04-13T00:57:58.822Z,4.55
2023-04-13T01:02:56.473Z,3.42
2023-04-13T01:08:08.546Z,3.83
2023-04-13T01:13:15.248Z,3.40
2023-04-13T01:18:22.091Z,3.70
2023-04-13T01:23:30.628Z,3.72
2023-04-13T01:28:32.743Z,3.72
2023-04-13T01:33:30.415Z,3.65
2023-04-13T01:38:28.292Z,2.85
2023-04-13T01:43:28.108Z,4.28
2023-04-13T01:48:42.633Z,5.22
2023-04-13T01:54:07.260Z,4.20
2023-04-13T02:04:04.772Z,3.58
2023-04-13T02:09:05.837Z,2.92
2023-04-13T02:14:03.489Z,2.83
2023-04-13T02:19:01.224Z,3.10
2023-04-13T02:23:59.371Z,2.40
2023-04-13T02:28:56.460Z,3.08
2023-04-13T02:33:53.268Z,3.30
2023-04-13T02:38:50.221Z,2.60
2023-04-13T02:44:03.081Z,2.83
2023-04-13T02:49:10.092Z,2.83
2023-04-13T02:54:14.159Z,2.85
2023-04-13T02:59:16.881Z,2.42
2023-04-13T03:04:14.786Z,2.45
2023-04-13T03:09:12.114Z,2.58
2023-04-13T03:14:21.481Z,2.63
2023-04-13T03:19:24.858Z,2.88
2023-04-13T03:24:21.850Z,2.95
2023-04-13T03:29:19.368Z,2.40
2023-04-13T03:34:16.253Z,3.10
2023-04-13T03:39:15.947Z,2.90
2023-04-13T03:44:13.361Z,3.70
2023-04-13T03:49:10.825Z,3.38
2023-04-13T03:54:08.733Z,3.65
2023-04-13T03:59:06.846Z,3.47
2023-04-13T04:04:04.308Z,3.40
2023-04-13T04:09:01.590Z,3.53
2023-04-13T04:14:07.140Z,3.60
2023-04-13T04:19:04.744Z,3.45
2023-04-13T04:24:02.174Z,5.35
2023-04-13T04:29:01.644Z,3.40
2023-04-13T04:34:00.797Z,6.90
2023-04-13T04:39:01.513Z,4.85
2023-04-13T04:44:07.616Z,3.58
2023-04-13T04:49:09.534Z,4.07
2023-04-13T04:54:07.523Z,3.90
2023-04-13T04:59:04.754Z,3.33
2023-04-13T05:04:12.141Z,2.97
2023-04-13T05:09:11.243Z,3.80
2023-04-13T05:14:11.786Z,3.33
2023-04-13T05:19:09.887Z,3.80
2023-04-13T05:24:20.268Z,3.25
2023-04-13T05:29:18.039Z,3.20
2023-04-13T05:34:16.190Z,2.75
2023-04-13T05:39:26.604Z,2.70
2023-04-13T05:44:23.511Z,3.20
2023-04-13T05:49:22.404Z,3.83
2023-04-13T05:54:19.404Z,3.50
2023-04-13T05:59:19.870Z,3.63
2023-04-13T06:04:17.707Z,2.92
2023-04-13T06:09:15.070Z,3.15
2023-04-13T06:14:15.950Z,2.38
2023-04-13T06:19:13.653Z,2.17
2023-04-13T06:24:10.644Z,2.63
2023-04-13T06:29:08.469Z,2.45
2023-04-13T06:34:29.021Z,1.95
2023-04-13T06:39:28.331Z,2.30
2023-04-13T06:44:29.399Z,2.20
2023-04-13T06:49:31.992Z,2.00
2023-04-13T06:54:31.233Z,2.17
2023-04-13T06:59:36.133Z,2.33
2023-04-13T07:04:34.163Z,1.80
2023-04-13T07:09:33.837Z,1.90
2023-04-13T07:14:35.878Z,1.90
2023-04-13T07:19:38.779Z,2.28
2023-04-13T07:24:36.365Z,2.33
2023-04-13T07:29:37.845Z,2.10
2023-04-13T07:34:43.165Z,5.43
2023-04-13T07:39:40.965Z,2.30
2023-04-13T07:44:41.294Z,2.70
2023-04-13T07:49:38.816Z,2.08
2023-04-13T07:54:43.034Z,2.10
2023-04-13T07:59:41.716Z,2.13
2023-04-13T08:04:39.455Z,2.30
2023-04-13T08:09:41.554Z,2.30
2023-04-13T08:14:38.966Z,1.83
2023-04-13T08:19:38.262Z,2.28
2023-04-13T08:24:36.644Z,2.33
2023-04-13T08:29:34.536Z,2.10
2023-04-13T08:34:32.247Z,2.20
2023-04-13T08:39:29.336Z,2.05
2023-04-13T08:44:39.385Z,2.08
2023-04-13T08:49:38.274Z,2.88
2023-04-13T08:54:46.925Z,2.90
2023-04-13T08:59:54.691Z,2.28
2023-04-13T09:04:54.698Z,2.95
2023-04-13T09:10:07.646Z,2.53
2023-04-13T09:15:07.233Z,2.47
2023-04-13T09:20:13.308Z,2.50
2023-04-13T09:25:20.945Z,2.95
2023-04-13T09:30:21.056Z,2.83
2023-04-13T09:35:18.138Z,6.93
2023-04-13T09:40:18.157Z,3.17
2023-04-13T09:45:15.823Z,2.40
2023-04-13T09:50:23.056Z,2.58
2023-04-13T09:55:19.954Z,2.35
2023-04-13T10:00:20.140Z,2.92
2023-04-13T10:05:18.343Z,2.22
2023-04-13T10:10:16.454Z,2.30
2023-04-13T10:15:24.366Z,2.25
2023-04-13T10:20:27.963Z,2.00
2023-04-13T10:25:33.157Z,1.80
2023-04-13T10:30:31.722Z,1.98
2023-04-13T10:35:29.235Z,1.67
2023-04-13T10:40:26.776Z,1.95
2023-04-13T10:45:25.967Z,1.60
2023-04-13T10:50:24.663Z,1.40
2023-04-13T10:55:23.660Z,1.20
2023-04-13T11:00:22.141Z,1.70
2023-04-13T11:05:24.924Z,1.33
2023-04-13T11:10:26.102Z,1.35
2023-04-13T11:15:26.305Z,1.70
2023-04-13T11:20:32.895Z,4.45
2023-04-13T11:25:29.961Z,1.60
2023-04-13T11:30:28.041Z,1.25
2023-04-13T11:35:24.866Z,1.65
2023-04-13T11:40:23.574Z,2.20
2023-04-13T11:45:22.775Z,1.67
2023-04-13T11:50:21.852Z,1.85
2023-04-13T11:55:23.867Z,1.90
2023-04-13T12:00:23.588Z,1.60
2023-04-13T12:05:22.333Z,2.22
2023-04-13T12:10:25.629Z,1.67
2023-04-13T12:15:43.499Z,1.77
2023-04-13T12:20:47.412Z,1.90
2023-04-13T12:25:55.103Z,1.85
2023-04-13T12:30:52.045Z,1.70
2023-04-13T12:35:49.683Z,2.53
2023-04-13T12:40:46.557Z,2.63
2023-04-13T12:45:43.429Z,2.60
2023-04-13T12:50:42.902Z,1.77
2023-04-13T12:55:42.569Z,2.50
2023-04-13T13:00:39.688Z,1.75
2023-04-13T13:05:38.697Z,2.17
2023-04-13T13:10:36.394Z,2.15
2023-04-13T13:15:34.369Z,2.78
2023-04-13T13:20:31.790Z,2.13
2023-04-13T13:25:31.950Z,2.25
2023-04-13T13:30:30.164Z,2.80
2023-04-13T13:35:33.941Z,2.30
2023-04-13T13:40:30.868Z,1.73
2023-04-13T13:45:27.876Z,2.03
2023-04-13T13:50:25.808Z,1.75
2023-04-13T13:55:24.488Z,1.52
2023-04-13T14:00:22.230Z,1.90
2023-04-13T14:05:21.169Z,1.30
2023-04-13T14:10:18.304Z,1.80
2023-04-13T14:15:16.480Z,1.80
2023-04-13T14:20:13.448Z,2.63
2023-04-13T14:25:10.808Z,2.10
2023-04-13T14:30:08.825Z,1.70
2023-04-13T14:35:06.940Z,2.00
2023-04-13T14:40:08.277Z,1.63
2023-04-13T14:45:07.061Z,2.10
2023-04-13T14:50:05.038Z,2.40
2023-04-13T14:55:03.636Z,1.80
2023-04-13T15:00:01.339Z,1.88
2023-04-13T15:04:58.473Z,2.17
2023-04-13T15:09:55.638Z,1.77
2023-04-13T15:15:02.437Z,2.88
2023-04-13T15:20:02.719Z,1.65
2023-04-13T15:25:00.506Z,2.22
2023-04-13T15:30:09.718Z,2.40
2023-04-13T15:35:07.191Z,3.40
2023-04-13T15:40:07.001Z,2.03
2023-04-13T15:45:11.425Z,1.42
2023-04-13T15:50:09.540Z,1.77
2023-04-13T15:55:07.697Z,2.33
2023-04-13T16:00:07.967Z,1.45
2023-04-13T16:05:05.198Z,1.40
2023-04-13T16:10:02.275Z,1.80
2023-04-13T16:15:02.736Z,1.60
2023-04-13T16:20:17.668Z,1.67
2023-04-13T16:25:16.120Z,1.92
2023-04-13T16:30:16.714Z,2.75
2023-04-13T16:35:15.041Z,2.05
2023-04-13T16:40:13.256Z,2.80
2023-04-13T16:45:14.426Z,1.98
2023-04-13T16:50:14.042Z,1.88
2023-04-13T16:55:15.309Z,2.63
2023-04-13T17:00:18.656Z,3.20
2023-04-13T17:05:27.649Z,2.20
2023-04-13T17:10:25.820Z,6.75
2023-04-13T17:15:22.789Z,4.25
2023-04-13T17:20:19.915Z,3.33
2023-04-13T17:25:21.911Z,3.10
2023-04-13T17:30:21.769Z,3.40
2023-04-13T17:35:19.055Z,3.13
2023-04-13T17:40:16.154Z,2.30
2023-04-13T17:45:14.342Z,2.97
2023-04-13T17:50:14.521Z,3.08
2023-04-13T17:55:11.591Z,2.55
2023-04-13T18:00:09.427Z,3.00
2023-04-13T18:05:08.913Z,2.88
2023-04-13T18:10:07.741Z,3.30
2023-04-13T18:15:05.930Z,4.60
2023-04-13T18:20:02.885Z,3.78
2023-04-13T18:24:59.843Z,4.47
2023-04-13T18:29:57.286Z,3.17
2023-04-13T18:34:54.113Z,3.25
2023-04-13T18:39:51.973Z,2.58
2023-04-13T18:44:48.802Z,3.22
2023-04-13T18:49:47.038Z,3.28
2023-04-13T18:54:43.994Z,3.15
2023-04-13T18:59:40.916Z,4.07
2023-04-13T19:04:38.914Z,3.70
2023-04-13T19:09:36.738Z,4.78
2023-04-13T19:14:34.081Z,6.07
2023-04-13T19:19:30.916Z,4.75
2023-04-13T19:24:27.800Z,4.43
2023-04-13T19:29:29.450Z,4.38
2023-04-13T19:34:26.861Z,3.60
2023-04-13T19:39:23.682Z,6.15
2023-04-13T19:44:20.575Z,3.40
2023-04-13T19:49:18.178Z,3.20
2023-04-13T19:54:15.058Z,2.78
2023-04-13T19:59:12.195Z,2.47
2023-04-13T20:04:10.313Z,3.03
2023-04-13T20:09:09.319Z,2.80
2023-04-13T20:14:06.320Z,2.50
2023-04-13T20:19:04.814Z,3.20
2023-04-13T20:24:03.093Z,3.28
2023-04-13T20:29:03.083Z,3.20
2023-04-13T20:34:03.514Z,3.03
2023-04-13T20:39:00.381Z,3.08
2023-04-13T20:43:58.063Z,3.60
2023-04-13T20:48:56.128Z,3.60
2023-04-13T20:53:52.954Z,2.78
2023-04-13T20:58:49.816Z,3.10
2023-04-13T21:03:47.713Z,2.92
2023-04-13T21:08:54.191Z,2.70
2023-04-13T21:13:50.947Z,3.05
2023-04-13T21:18:48.051Z,2.40
2023-04-13T21:23:45.510Z,3.72
2023-04-13T21:28:42.321Z,2.60
2023-04-13T21:33:39.152Z,3.30
2023-04-13T21:38:38.942Z,2.90
2023-04-13T21:43:36.575Z,3.63
2023-04-13T21:48:33.645Z,2.90
2023-04-13T21:53:32.128Z,4.53
2023-04-13T21:58:36.675Z,4.60
2023-04-13T22:03:36.569Z,4.97
2023-04-13T22:08:33.766Z,5.78
2023-04-13T22:13:30.641Z,5.22
2023-04-13T22:18:29.050Z,4.65
2023-04-13T22:23:26.923Z,4.90
2023-04-13T22:28:24.063Z,4.97
2023-04-13T22:33:20.997Z,4.78
2023-04-13T22:38:17.988Z,5.03
2023-04-13T22:43:15.640Z,6.25
2023-04-13T22:48:12.548Z,4.05
2023-04-13T22:53:09.499Z,5.15
2023-04-13T22:58:06.260Z,4.57
2023-04-13T23:03:04.155Z,4.85
2023-04-13T23:08:01.275Z,4.45
2023-04-13T23:12:58.515Z,3.00
2023-04-13T23:17:55.889Z,6.40
2023-04-13T23:22:53.558Z,4.82
2023-04-13T23:27:50.364Z,5.70
2023-04-13T23:32:47.181Z,5.60
2023-04-13T23:37:44.721Z,4.35
2023-04-13T23:42:42.196Z,3.85
2023-04-13T23:47:39.114Z,4.47
2023-04-13T23:52:35.983Z,4.00
2023-04-13T23:57:33.624Z,5.25
